Paynes Find, Australia
Current Conditions -  °F | °C
As of 5:30 PM on Sunday 26 Oct 2014 (Local Time) from YGEL Reporting Station
Few Clouds Few Clouds  
Wind Chill: 70°   Ceiling: Unl
Heat Index: 70°   Visibility: 6mi
Dew Point: 54°   Wind: 18mph
Humidity: 56%   Direction: 190°S
Pressure: 30.12"   Gusts: NA
Location:  29.26°S, 117.69°E
Report Text: YGEL 260930Z 19016KT 9999 FEW030 21/12 Q1020
Loading
Personal Weather Stations






























Interactive Weather Map
Tropical Storm Tracking
New forecast layout! Learn more

10-Day Weather Forecast

Advertisements
Track Severe Weather on mobile